Time;durP1;ratioP1;P1;durP2;ratioP2;P2;SDS_P1;SDS_P2;PMS_P1;PMS_P2;Temp;Humidity;BMP_temperature;BMP_pressure;BME280_temperature;BME280_humidity;BME280_pressure;Samples;Min_cycle;Max_cycle;Signal;HPM_P1;HPM_P2
2022/02/09 00:01:29;;;;;;;9.20;4.00;;;;;;;4.77;80.34;100303.89;105770;1276;248761;-75
2022/02/09 00:04:10;;;;;;;9.90;3.80;;;;;;;4.71;80.49;100316.00;105699;1276;107623;-74
2022/02/09 00:06:48;;;;;;;9.60;4.40;;;;;;;4.67;80.46;100324.98;105838;1276;137563;-75
2022/02/09 00:09:20;;;;;;;10.20;3.50;;;;;;;4.62;80.83;100318.97;106071;1275;97948;-75
2022/02/09 00:12:03;;;;;;;8.50;3.10;;;;;;;4.59;80.92;100318.98;105801;1276;138384;-75
2022/02/09 00:14:49;;;;;;;5.50;2.70;;;;;;;4.57;80.93;100321.26;105994;1276;106587;-76
2022/02/09 00:23:32;;;;;;;11.10;3.50;;;;;;;4.50;81.21;100333.36;105607;1277;138083;-76
2022/02/09 00:35:09;;;;;;;11.00;3.30;;;;;;;4.29;81.04;100362.89;105875;1277;97924;-74
2022/02/09 01:40:09;;;;;;;9.30;4.00;;;;;;;4.29;82.07;100424.86;107189;1277;94524;-75
2022/02/09 01:55:26;;;;;;;12.10;3.40;;;;;;;4.16;81.97;100425.09;106527;1276;108893;-76
2022/02/09 01:57:08;;;;;;;7.60;3.20;;;;;;;4.08;82.03;100425.61;105904;1277;95174;-75
2022/02/09 01:59:42;;;;;;;11.60;3.60;;;;;;;4.04;81.98;100427.87;106895;1277;139405;-76
2022/02/09 02:02:14;;;;;;;8.90;3.50;;;;;;;4.00;82.02;100427.73;107167;1277;109198;-77
2022/02/09 02:04:47;;;;;;;9.90;3.70;;;;;;;3.96;82.23;100427.04;105895;1277;108258;-74
2022/02/09 02:07:29;;;;;;;13.90;4.50;;;;;;;3.93;82.34;100437.87;105666;1277;137128;-75
2022/02/09 02:10:06;;;;;;;12.70;4.70;;;;;;;3.90;82.19;100440.45;106506;1277;95075;-76
2022/02/09 02:13:15;;;;;;;11.70;4.10;;;;;;;3.84;82.53;100438.93;105975;1276;138054;-75
2022/02/09 02:18:36;;;;;;;9.80;3.80;;;;;;;3.75;82.96;100454.41;105878;1277;138624;-76
2022/02/09 02:21:24;;;;;;;9.70;3.40;;;;;;;3.75;83.10;100458.70;105680;1277;95646;-75
2022/02/09 02:30:19;;;;;;;10.10;3.80;;;;;;;3.85;83.36;100464.73;105645;1277;138335;-75
2022/02/09 02:33:16;;;;;;;11.90;4.30;;;;;;;3.86;83.28;100464.03;105782;1277;108864;-75
2022/02/09 02:36:07;;;;;;;10.90;4.30;;;;;;;3.86;83.36;100464.73;105701;1277;137139;-75
2022/02/09 02:39:12;;;;;;;10.20;3.90;;;;;;;3.87;83.45;100465.92;105813;1277;95213;-74
2022/02/09 02:47:41;;;;;;;6.40;3.20;;;;;;;3.97;83.52;100466.95;105853;1277;108500;-77
2022/02/09 02:59:19;;;;;;;15.20;4.00;;;;;;;4.11;83.00;100475.51;106008;1277;107886;-75
2022/02/09 03:10:51;;;;;;;9.10;2.90;;;;;;;4.13;82.88;100487.73;106198;1273;109336;-75
2022/02/09 03:13:29;;;;;;;11.10;3.30;;;;;;;4.18;83.04;100490.99;106121;1273;137827;-75
2022/02/09 03:16:05;;;;;;;8.90;3.30;;;;;;;4.22;83.04;100488.05;106067;1273;108275;-75
2022/02/09 03:18:59;;;;;;;12.10;3.70;;;;;;;4.24;82.76;100487.18;105994;1273;138076;-74
2022/02/09 03:21:47;;;;;;;12.60;4.40;;;;;;;4.22;82.73;100483.92;105964;1273;95242;-74
2022/02/09 03:24:30;;;;;;;;;;;;;;;4.20;82.77;100480.31;106003;1273;136997;-75
2022/02/09 03:27:26;;;;;;;11.00;4.00;;;;;;;4.15;82.81;100482.57;106045;1273;108819;-75
2022/02/09 03:44:30;;;;;;;16.00;5.10;;;;;;;4.05;82.89;100498.23;106138;1271;137758;-75
2022/02/09 03:50:21;;;;;;;14.80;6.70;;;;;;;4.08;82.89;100501.33;106058;1271;137426;-75
2022/02/09 03:53:14;;;;;;;18.00;6.30;;;;;;;4.04;83.14;100511.48;107292;1271;109895;-74
2022/02/09 03:56:11;;;;;;;13.70;5.60;;;;;;;4.01;83.16;100513.58;106106;1271;137990;-75
2022/02/09 03:58:42;;;;;;;10.40;5.60;;;;;;;3.99;83.18;100516.15;106061;1273;109347;-74
2022/02/09 04:01:15;;;;;;;11.20;5.90;;;;;;;4.01;83.45;100522.52;106051;1273;138170;-76
2022/02/09 04:03:47;;;;;;;11.60;5.70;;;;;;;4.02;83.57;100526.46;106150;1271;95141;-75
2022/02/09 04:06:19;;;;;;;11.60;5.80;;;;;;;4.07;83.51;100527.14;105952;1272;140095;-75
2022/02/09 04:08:55;;;;;;;13.70;6.50;;;;;;;4.11;83.39;100523.17;106135;1271;108250;-75
2022/02/09 04:11:32;;;;;;;17.90;6.70;;;;;;;4.11;83.33;100521.79;106096;1271;108748;-75
2022/02/09 04:14:10;;;;;;;16.00;7.80;;;;;;;4.11;83.12;100521.96;106087;1271;137292;-75
2022/02/09 04:16:54;;;;;;;13.40;7.90;;;;;;;4.06;82.95;100522.50;106105;1271;95099;-75
2022/02/09 04:19:35;;;;;;;14.30;8.00;;;;;;;4.01;83.22;100526.12;106055;1271;137723;-75
2022/02/09 04:36:27;;;;;;;14.70;8.00;;;;;;;3.86;83.40;100511.16;106038;1271;138028;-74
2022/02/09 04:39:05;;;;;;;16.10;8.70;;;;;;;3.88;83.43;100509.27;106204;1271;107211;-75
2022/02/09 04:41:58;;;;;;;15.90;8.30;;;;;;;3.88;83.51;100510.65;106240;1271;95197;-75
2022/02/09 04:44:50;;;;;;;16.30;8.80;;;;;;;3.82;83.29;100519.61;106002;1271;136881;-75
2022/02/09 04:47:36;;;;;;;18.00;8.90;;;;;;;3.75;83.14;100525.09;106162;1274;110001;-75
2022/02/09 04:50:16;;;;;;;15.50;8.00;;;;;;;3.68;83.30;100526.13;106099;1271;138012;-75
2022/02/09 04:53:19;;;;;;;18.90;8.10;;;;;;;3.61;83.25;100526.66;107697;1273;107803;-75
2022/02/09 04:55:57;;;;;;;15.70;7.40;;;;;;;3.54;83.20;100532.47;107066;1271;137805;-75
2022/02/09 04:58:41;;;;;;;14.30;7.80;;;;;;;3.49;83.23;100527.66;106072;1271;95246;-74
2022/02/09 05:01:34;;;;;;;12.80;6.60;;;;;;;3.44;83.76;100523.55;106049;1271;137833;-76
2022/02/09 05:04:28;;;;;;;16.30;6.90;;;;;;;3.38;83.67;100523.86;106177;1271;108535;-75
2022/02/09 05:18:38;;;;;;;16.70;7.90;;;;;;;3.22;84.02;100534.48;106081;1271;138391;-74
2022/02/09 05:21:34;;;;;;;15.60;7.00;;;;;;;3.15;83.80;100539.97;106230;1271;108762;-74
2022/02/09 05:24:14;;;;;;;19.90;6.90;;;;;;;3.09;84.03;100538.08;106112;1271;96492;-74
2022/02/09 05:26:50;;;;;;;15.80;7.30;;;;;;;3.05;84.03;100547.16;107604;1271;137651;-75
2022/02/09 05:29:22;;;;;;;16.60;7.60;;;;;;;3.04;84.47;100550.23;107694;1273;110875;-75
2022/02/09 05:31:54;;;;;;;16.60;7.00;;;;;;;3.06;84.57;100551.46;107611;1271;138989;-75
2022/02/09 05:34:26;;;;;;;20.30;7.10;;;;;;;3.06;84.62;100548.38;107747;1271;107730;-75
2022/02/09 05:37:00;;;;;;;13.80;6.90;;;;;;;3.06;84.69;100544.08;107696;1271;138345;-76
2022/02/09 05:39:32;;;;;;;15.60;7.30;;;;;;;3.08;84.99;100543.75;107706;1271;94687;-75
2022/02/09 05:42:08;;;;;;;15.40;6.70;;;;;;;3.09;84.76;100545.81;107803;1271;110459;-75
2022/02/09 05:44:40;;;;;;;15.20;7.00;;;;;;;3.11;85.00;100545.81;107635;1271;137135;-75
2022/02/09 05:50:06;;;;;;;14.90;6.30;;;;;;;3.16;85.36;100548.05;106065;1273;138282;-75
2022/02/09 05:55:44;;;;;;;12.90;6.40;;;;;;;3.19;85.55;100552.01;105958;1273;137859;-75
2022/02/09 05:58:34;;;;;;;16.00;6.30;;;;;;;3.24;85.73;100553.91;106054;1273;106849;-75
2022/02/09 06:01:06;;;;;;;13.60;6.10;;;;;;;3.26;85.83;100558.92;105971;1271;138603;-75
2022/02/09 06:03:38;;;;;;;19.70;6.50;;;;;;;3.31;86.17;100557.38;106215;1271;96517;-75
2022/02/09 06:06:11;;;;;;;12.20;5.80;;;;;;;3.34;85.95;100553.77;106068;1274;96550;-75
2022/02/09 06:08:43;;;;;;;12.20;6.10;;;;;;;3.40;86.09;100557.90;105830;1271;137835;-75
2022/02/09 06:11:25;;;;;;;15.00;6.00;;;;;;;3.46;86.35;100561.70;105979;1271;108035;-75
2022/02/09 06:14:15;;;;;;;15.00;5.30;;;;;;;3.51;85.91;100559.30;105833;1271;138762;-75
2022/02/09 06:19:44;;;;;;;13.50;6.40;;;;;;;3.58;85.77;100558.95;105980;1271;137374;-75
2022/02/09 06:22:16;;;;;;;14.80;7.10;;;;;;;3.58;85.71;100558.09;106123;1271;108655;-75
2022/02/09 06:24:49;;;;;;;14.60;6.40;;;;;;;3.58;85.37;100559.14;105931;1271;137854;-75
2022/02/09 06:27:21;;;;;;;14.90;7.40;;;;;;;3.59;85.61;100558.63;106076;1271;107725;-76
2022/02/09 06:29:53;;;;;;;15.60;7.70;;;;;;;3.60;85.49;100566.55;106115;1271;97248;-76
2022/02/09 06:32:27;;;;;;;15.50;8.00;;;;;;;3.59;85.50;100571.35;105977;1271;138515;-75
2022/02/09 06:34:59;;;;;;;19.10;7.90;;;;;;;3.60;85.31;100573.59;106163;1271;111808;-75
2022/02/09 06:37:39;;;;;;;12.90;7.40;;;;;;;3.64;85.64;100578.92;106092;1271;138332;-75
2022/02/09 06:40:15;;;;;;;18.40;7.30;;;;;;;3.67;85.39;100585.27;106104;1271;109102;-75
2022/02/09 06:42:48;;;;;;;13.40;6.10;;;;;;;3.72;85.22;100588.55;107643;1271;138702;-76
2022/02/09 06:45:22;;;;;;;13.60;6.00;;;;;;;3.76;85.10;100594.07;106608;1271;96542;-75
2022/02/09 06:47:55;;;;;;;12.60;6.30;;;;;;;3.80;84.92;100589.27;106172;1273;110358;-75
2022/02/09 06:50:34;;;;;;;16.70;6.00;;;;;;;3.79;84.77;100593.73;106094;1271;137617;-75
2022/02/09 06:53:15;;;;;;;13.50;6.20;;;;;;;3.75;84.45;100589.06;106217;1271;108063;-76
2022/02/09 06:55:51;;;;;;;13.10;5.70;;;;;;;3.70;84.56;100585.11;106041;1273;138944;-76
2022/02/09 06:58:43;;;;;;;16.30;5.90;;;;;;;3.66;84.75;100585.80;107062;1273;94914;-75
2022/02/09 07:01:15;;;;;;;12.50;5.40;;;;;;;3.64;84.36;100590.80;107653;1271;137899;-75
2022/02/09 07:03:47;;;;;;;15.80;5.20;;;;;;;3.68;84.63;100592.17;107753;1271;107639;-75
2022/02/09 07:06:19;;;;;;;13.60;5.50;;;;;;;3.97;84.43;100593.73;107689;1271;108836;-76
2022/02/09 07:08:51;;;;;;;13.10;5.70;;;;;;;4.34;83.80;100584.41;107599;1271;138056;-73
2022/02/09 07:11:23;;;;;;;13.20;4.60;;;;;;;4.72;83.66;100587.09;106185;1273;96459;-75
2022/02/09 07:13:55;;;;;;;11.90;4.40;;;;;;;5.13;83.30;100586.60;106045;1273;137845;-76
2022/02/09 07:16:28;;;;;;;13.60;5.20;;;;;;;5.49;82.95;100582.27;107058;1271;108574;-75
2022/02/09 07:19:04;;;;;;;15.40;5.30;;;;;;;5.86;82.06;100591.01;107357;1271;137697;-75
2022/02/09 07:21:39;;;;;;;12.60;5.40;;;;;;;6.11;81.25;100587.72;107685;1271;95558;-75
2022/02/09 07:24:15;;;;;;;13.00;5.30;;;;;;;6.43;80.62;100594.52;107318;1271;94426;-74
2022/02/09 07:27:22;;;;;;;11.20;5.50;;;;;;;6.78;79.96;100595.18;106924;1271;137184;-76
2022/02/09 07:29:44;;;;;;;14.00;5.30;;;;;;;7.17;79.22;100600.42;106158;1271;108671;-77
2022/02/09 07:32:16;;;;;;;11.70;5.00;;;;;;;7.47;78.56;100597.08;106058;1271;138731;-75
2022/02/09 07:34:48;;;;;;;17.70;5.70;;;;;;;7.77;77.61;100596.80;106342;1271;96480;-76
2022/02/09 07:37:22;;;;;;;15.20;5.80;;;;;;;8.07;76.91;100595.83;106297;1272;138295;-75
2022/02/09 07:39:53;;;;;;;14.10;5.70;;;;;;;8.38;76.32;100595.67;107771;1271;110731;-75
2022/02/09 07:42:28;;;;;;;15.20;5.90;;;;;;;8.68;75.14;100594.42;107691;1273;108373;-76
2022/02/09 07:45:24;;;;;;;11.90;5.20;;;;;;;9.03;74.61;100588.02;107577;1273;138160;-75
2022/02/09 07:48:14;;;;;;;11.90;5.70;;;;;;;9.51;73.72;100588.39;107741;1271;94459;-76
2022/02/09 07:50:49;;;;;;;12.00;5.70;;;;;;;9.83;72.56;100588.36;107681;1271;138022;-77
2022/02/09 07:53:26;;;;;;;11.00;5.50;;;;;;;10.15;71.58;100580.43;107701;1271;111116;-76
2022/02/09 07:55:58;;;;;;;13.00;6.00;;;;;;;10.44;70.98;100583.71;107647;1270;137859;-75
2022/02/09 07:58:29;;;;;;;12.30;5.70;;;;;;;10.68;70.21;100579.08;107036;1271;108806;-76
2022/02/09 08:01:01;;;;;;;15.10;5.70;;;;;;;10.91;69.70;100581.91;106036;1271;138776;-83
2022/02/09 08:03:35;;;;;;;15.60;6.40;;;;;;;11.22;68.95;100586.76;106271;1273;96537;-80
2022/02/09 08:06:08;;;;;;;12.10;5.60;;;;;;;11.51;68.24;100589.89;106156;1271;111215;-81
2022/02/09 08:08:43;;;;;;;14.10;6.10;;;;;;;11.91;68.23;100592.34;105989;1271;138169;-80
2022/02/09 08:11:19;;;;;;;12.60;5.20;;;;;;;12.51;67.11;100590.15;106165;1271;108860;-80
2022/02/09 08:28:49;;;;;;;15.40;5.60;;;;;;;11.92;64.56;100599.10;106189;1271;96485;-80
2022/02/09 08:31:46;;;;;;;13.20;5.10;;;;;;;11.59;64.83;100594.70;106152;1271;137706;-83
2022/02/09 08:34:18;;;;;;;19.00;6.30;;;;;;;11.31;65.39;100591.71;106244;1271;108818;-85
2022/02/09 08:36:52;;;;;;;11.70;6.00;;;;;;;11.25;65.38;100587.20;106109;1271;139483;-78
2022/02/09 08:39:24;;;;;;;13.90;5.80;;;;;;;11.21;65.46;100584.18;107188;1271;108964;-81
2022/02/09 08:41:58;;;;;;;15.90;5.80;;;;;;;11.17;65.58;100577.53;106668;1271;94950;-80
2022/02/09 08:44:30;;;;;;;11.50;6.30;;;;;;;11.39;65.57;100580.86;106428;1271;137876;-77
2022/02/09 08:47:02;;;;;;;10.90;5.70;;;;;;;11.94;65.49;100577.95;106183;1271;110972;-79
2022/02/09 08:49:34;;;;;;;12.10;5.50;;;;;;;12.68;64.41;100570.36;107424;1272;141034;-79
2022/02/09 08:52:08;;;;;;;10.60;5.70;;;;;;;12.93;63.41;100563.02;107607;1273;107820;-80
2022/02/09 08:54:39;;;;;;;12.70;6.40;;;;;;;13.09;62.88;100561.70;107798;1271;94630;-79
2022/02/09 08:57:11;;;;;;;9.20;5.20;;;;;;;13.09;62.83;100562.77;106869;1273;137840;-79
2022/02/09 08:59:43;;;;;;;9.20;5.00;;;;;;;13.09;62.58;100563.80;107773;1271;111225;-79
2022/02/09 09:02:18;;;;;;;13.10;5.80;;;;;;;12.93;62.29;100561.27;106281;1271;137572;-79
2022/02/09 09:04:54;;;;;;;11.60;5.00;;;;;;;12.59;62.26;100562.66;106152;1271;109108;-80
2022/02/09 09:07:33;;;;;;;11.90;5.50;;;;;;;12.24;62.23;100565.82;106094;1271;138846;-79
2022/02/09 09:10:14;;;;;;;11.00;5.10;;;;;;;12.12;62.67;100562.20;106254;1271;96479;-78
2022/02/09 10:31:31;;;;;;;12.80;8.90;;;;;;;7.95;74.45;100555.69;105959;1278;108636;-76
2022/02/09 10:34:08;;;;;;;14.70;8.60;;;;;;;7.94;74.90;100555.19;107114;1276;138181;-75
2022/02/09 10:36:45;;;;;;;;;;;;;;;7.92;75.04;100551.23;107465;1276;94697;-75
2022/02/09 10:39:22;;;;;;;16.50;8.90;;;;;;;7.95;75.02;100544.77;106438;1277;123794;-75
2022/02/09 10:41:56;;;;;;;;;;;;;;;7.97;75.21;100545.10;105782;1277;108904;-76
2022/02/09 10:44:45;;;;;;;17.40;8.80;;;;;;;8.02;75.26;100538.77;105920;1271;123756;-76
2022/02/09 10:47:25;;;;;;;16.80;8.40;;;;;;;8.10;75.23;100538.12;106220;1271;96462;-76
2022/02/09 10:50:17;;;;;;;12.50;8.90;;;;;;;8.09;75.04;100533.29;107601;1273;138248;-75
2022/02/09 10:52:50;;;;;;;12.90;7.30;;;;;;;8.07;75.14;100528.44;107167;1274;110330;-74
2022/02/09 10:55:30;;;;;;;12.80;7.50;;;;;;;8.11;75.18;100526.14;106119;1272;107733;-75
2022/02/09 10:58:06;;;;;;;11.30;7.00;;;;;;;8.15;75.19;100525.38;105954;1273;138177;-74
2022/02/09 11:00:43;;;;;;;12.90;7.30;;;;;;;8.16;75.26;100526.06;106085;1271;95186;-75
2022/02/09 11:03:18;;;;;;;12.40;6.90;;;;;;;8.15;75.47;100526.07;106055;1271;137711;-76
2022/02/09 11:05:51;;;;;;;13.80;7.30;;;;;;;8.16;75.59;100524.48;106162;1271;109980;-76
2022/02/09 11:08:24;;;;;;;12.60;7.30;;;;;;;8.13;75.80;100522.46;106065;1271;138357;-76
2022/02/09 11:10:57;;;;;;;12.30;7.20;;;;;;;8.08;75.96;100520.30;107696;1271;108165;-76
2022/02/09 11:13:28;;;;;;;12.50;7.00;;;;;;;8.00;76.25;100521.31;106339;1271;96588;-76
2022/02/09 11:16:01;;;;;;;11.40;7.00;;;;;;;7.91;76.38;100522.15;106027;1271;138192;-76
2022/02/09 11:18:35;;;;;;;12.90;6.70;;;;;;;7.78;76.60;100517.16;107689;1272;110272;-75
2022/02/09 11:21:13;;;;;;;10.80;6.60;;;;;;;7.69;77.09;100514.88;107641;1271;138154;-77
2022/02/09 11:23:51;;;;;;;8.80;6.00;;;;;;;7.63;77.34;100509.80;106362;1271;109108;-74
2022/02/09 11:26:46;;;;;;;9.60;6.00;;;;;;;7.56;77.53;100512.52;106057;1271;137795;-76
2022/02/09 11:29:28;;;;;;;9.40;6.10;;;;;;;7.46;77.78;100507.46;106152;1271;96565;-77
2022/02/09 11:32:34;;;;;;;12.90;6.80;;;;;;;7.40;78.12;100505.67;106002;1271;137289;-76
2022/02/09 11:35:29;;;;;;;10.70;6.40;;;;;;;7.35;78.46;100500.38;106214;1271;107883;-75
2022/02/09 11:41:16;;;;;;;9.00;6.20;;;;;;;7.19;79.05;100499.05;107673;1273;94878;-76
2022/02/09 11:44:08;;;;;;;11.10;5.90;;;;;;;7.12;79.32;100490.67;107630;1272;139180;-75
2022/02/09 11:46:59;;;;;;;9.60;5.90;;;;;;;7.11;79.81;100493.80;107824;1271;109703;-76
2022/02/09 11:58:54;;;;;;;13.50;6.30;;;;;;;7.26;80.32;100489.62;107694;1271;137183;-75
2022/02/09 12:10:46;;;;;;;10.70;6.30;;;;;;;7.29;80.79;100478.16;105963;1274;138052;-75
2022/02/09 12:13:52;;;;;;;11.70;6.20;;;;;;;7.29;81.05;100474.86;106122;1271;96501;-74
2022/02/09 12:16:36;;;;;;;9.70;6.20;;;;;;;7.32;81.07;100477.77;106098;1271;139861;-74
2022/02/09 12:19:11;;;;;;;13.00;6.60;;;;;;;7.32;81.31;100478.45;107751;1271;108475;-73
2022/02/09 12:21:51;;;;;;;12.60;6.40;;;;;;;7.34;81.33;100480.14;107639;1271;137948;-75
2022/02/09 12:24:28;;;;;;;12.40;7.60;;;;;;;7.30;81.29;100480.38;107547;1271;94899;-76
2022/02/09 12:27:04;;;;;;;15.10;8.20;;;;;;;7.28;81.59;100480.75;106046;1271;138474;-75
2022/02/09 12:29:38;;;;;;;11.00;6.90;;;;;;;7.29;81.84;100484.20;107760;1271;111754;-74
2022/02/09 12:32:24;;;;;;;16.80;7.90;;;;;;;7.31;81.80;100484.52;105987;1274;107847;-76
2022/02/09 12:35:02;;;;;;;11.90;8.00;;;;;;;7.32;82.05;100485.71;106067;1273;109046;-75
2022/02/09 12:37:36;;;;;;;15.30;8.30;;;;;;;7.32;82.10;100482.08;106146;1271;96488;-76
2022/02/09 12:40:11;;;;;;;15.80;9.10;;;;;;;7.36;82.39;100477.37;106019;1271;138216;-77
2022/02/09 12:42:45;;;;;;;15.60;9.40;;;;;;;7.40;82.43;100468.48;107776;1271;110149;-76
2022/02/09 12:45:19;;;;;;;16.20;9.50;;;;;;;7.42;82.48;100470.00;107617;1271;137679;-76
2022/02/09 12:47:53;;;;;;;15.10;10.00;;;;;;;7.37;82.52;100475.27;107005;1271;107637;-76
2022/02/09 12:50:30;;;;;;;15.90;9.40;;;;;;;7.35;82.77;100474.42;106206;1271;96501;-76
2022/02/09 12:53:04;;;;;;;14.10;9.40;;;;;;;7.33;82.82;100472.55;105966;1274;137983;-75
2022/02/09 12:55:37;;;;;;;17.80;9.80;;;;;;;7.35;83.08;100465.09;106140;1271;110662;-76
2022/02/09 12:58:12;;;;;;;15.90;10.40;;;;;;;7.36;83.28;100455.21;106065;1271;138431;-76
2022/02/09 13:00:46;;;;;;;14.30;11.20;;;;;;;7.42;83.48;100460.83;106125;1271;107452;-77
2022/02/09 13:03:20;;;;;;;19.30;11.40;;;;;;;7.49;83.55;100459.15;105895;1273;139898;-75
2022/02/09 13:05:56;;;;;;;17.30;13.10;;;;;;;7.50;83.47;100458.95;107739;1271;94890;-76
2022/02/09 13:08:30;;;;;;;18.60;13.60;;;;;;;7.49;83.51;100465.38;106302;1271;109804;-75
2022/02/09 13:11:15;;;;;;;15.10;11.90;;;;;;;7.50;83.79;100460.69;106078;1271;138259;-75
2022/02/09 13:13:51;;;;;;;14.80;11.60;;;;;;;7.52;83.99;100462.73;106117;1271;109049;-75
2022/02/09 13:19:46;;;;;;;17.80;12.30;;;;;;;7.52;84.24;100452.69;107760;1271;95353;-75
2022/02/09 13:22:46;;;;;;;17.90;11.40;;;;;;;7.54;84.44;100454.58;107555;1273;138204;-75
2022/02/09 14:54:26;;;;;;;19.70;14.20;;;;;;;7.63;85.54;100412.89;106224;1287;107047;-74
2022/02/09 14:57:02;;;;;;;21.50;15.40;;;;;;;7.67;85.59;100412.65;106064;1286;138530;-73
2022/02/09 14:59:48;;;;;;;19.70;15.40;;;;;;;7.68;85.34;100419.53;106768;1281;96049;-76
2022/02/09 15:02:34;;;;;;;19.10;13.50;;;;;;;7.67;85.23;100415.76;106590;1281;111453;-76
2022/02/09 15:08:29;;;;;;;15.90;11.90;;;;;;;7.68;85.19;100414.36;102512;1311;636362;-75
2022/02/09 15:11:13;;;;;;;17.20;11.80;;;;;;;7.67;85.01;100418.19;105331;1281;137703;-74
2022/02/09 15:13:57;;;;;;;18.20;11.40;;;;;;;7.67;85.05;100421.13;105404;1283;94404;-74
2022/02/09 15:16:36;;;;;;;15.90;12.00;;;;;;;7.66;85.07;100429.45;105307;1283;137545;-79
2022/02/09 15:19:17;;;;;;;;;;;;;;;7.67;85.05;100437.56;105432;1283;107914;-76
2022/02/09 15:24:44;;;;;;;13.50;10.70;;;;;;;7.65;85.20;100437.59;105828;1280;94366;-74
2022/02/09 15:27:17;;;;;;;13.70;9.90;;;;;;;7.67;85.26;100437.58;105499;1280;138317;-76
2022/02/09 15:29:50;;;;;;;13.20;9.80;;;;;;;7.67;85.44;100434.44;105331;1281;108449;-75
2022/02/09 15:32:29;;;;;;;14.90;10.40;;;;;;;7.67;85.37;100435.30;105615;1280;108907;-75
2022/02/09 15:35:07;;;;;;;16.10;10.80;;;;;;;7.64;85.46;100435.54;105477;1279;137246;-75
2022/02/09 15:37:46;;;;;;;14.80;11.40;;;;;;;7.65;85.72;100435.17;105647;1280;95623;-74
2022/02/09 15:40:32;;;;;;;12.30;10.00;;;;;;;7.62;85.55;100436.28;105390;1280;137995;-75
2022/02/09 15:57:43;;;;;;;12.30;9.50;;;;;;;7.34;86.53;100441.56;106180;1287;139576;-75
2022/02/09 16:06:03;;;;;;;17.90;10.20;;;;;;;7.36;86.66;100433.59;105872;1287;95195;-75
2022/02/09 16:16:26;;;;;;;13.20;9.70;;;;;;;7.37;86.67;100430.48;106352;1276;138574;-75
2022/02/09 16:23:02;;;;;;;14.40;9.50;;;;;;;7.34;86.47;100434.98;106854;1279;138185;-75
2022/02/09 16:25:59;;;;;;;12.50;9.20;;;;;;;7.36;86.38;100430.48;107071;1279;108852;-74
2022/02/09 16:34:42;;;;;;;17.90;11.30;;;;;;;7.34;86.00;100422.55;107224;1274;138264;-74
2022/02/09 16:48:43;;;;;;;15.10;10.70;;;;;;;7.34;85.36;100429.65;107387;1274;93461;-75
2022/02/09 16:51:18;;;;;;;14.80;10.10;;;;;;;7.36;85.39;100427.55;106462;1274;138387;-75
2022/02/09 16:54:03;;;;;;;15.50;9.90;;;;;;;7.37;85.24;100423.38;105910;1276;109827;-74
2022/02/09 17:19:15;;;;;;;20.10;11.70;;;;;;;7.29;84.47;100425.39;105690;1281;95155;-75
2022/02/09 17:21:47;;;;;;;14.60;10.90;;;;;;;7.30;84.15;100421.92;105431;1281;138136;-75
2022/02/09 17:24:20;;;;;;;15.00;11.30;;;;;;;7.32;84.15;100422.75;105468;1279;108322;-74
2022/02/09 17:26:53;;;;;;;15.70;11.20;;;;;;;7.35;84.07;100420.29;105446;1281;108982;-74
2022/02/09 17:29:36;;;;;;;15.90;12.10;;;;;;;7.35;83.89;100419.07;105433;1281;138100;-75
2022/02/09 17:32:16;;;;;;;19.10;12.50;;;;;;;7.33;83.52;100418.05;105579;1280;95262;-75
2022/02/09 17:34:59;;;;;;;18.60;11.90;;;;;;;7.31;83.53;100417.23;106785;1279;137243;-74
2022/02/09 17:55:22;;;;;;;22.60;13.50;;;;;;;7.38;82.67;100423.02;105783;1273;110948;-75
2022/02/09 17:57:44;;;;;;;20.90;12.60;;;;;;;7.36;82.57;100423.21;106008;1270;139072;-74
2022/02/09 18:00:17;;;;;;;16.80;11.10;;;;;;;7.33;82.54;100420.84;106251;1270;95134;-74
2022/02/09 18:02:54;;;;;;;16.20;12.00;;;;;;;7.31;82.63;100421.38;107244;1270;108804;-74
2022/02/09 18:05:37;;;;;;;19.40;11.60;;;;;;;7.31;82.56;100417.23;105992;1270;139320;-75
2022/02/09 18:08:18;;;;;;;21.30;11.60;;;;;;;7.31;82.46;100416.55;106233;1270;107756;-75
2022/02/09 18:11:02;;;;;;;16.10;11.30;;;;;;;7.34;82.47;100418.05;106019;1270;138391;-74
2022/02/09 18:28:34;;;;;;;17.90;11.30;;;;;;;7.31;81.81;100406.68;106024;1270;139351;-73
2022/02/09 18:31:07;;;;;;;15.70;10.50;;;;;;;7.29;81.63;100410.17;106077;1270;109836;-74
2022/02/09 18:34:04;;;;;;;15.10;11.10;;;;;;;7.30;81.47;100407.91;105958;1270;140053;-74
2022/02/09 18:45:25;;;;;;;14.40;10.10;;;;;;;7.33;80.95;100401.98;106058;1270;138361;-74
2022/02/09 18:48:09;;;;;;;14.30;9.60;;;;;;;7.31;80.85;100401.84;106285;1269;109011;-74
2022/02/09 18:59:31;;;;;;;11.70;9.50;;;;;;;7.33;80.55;100403.88;106086;1271;137949;-74
2022/02/09 19:02:32;;;;;;;13.90;9.50;;;;;;;7.33;80.43;100409.25;106261;1270;106711;-72
2022/02/09 19:05:19;;;;;;;13.20;9.60;;;;;;;7.33;80.29;100405.79;106157;1270;137319;-74
2022/02/09 19:08:12;;;;;;;12.90;9.00;;;;;;;7.31;80.17;100409.45;106197;1270;95167;-74
2022/02/09 19:16:47;;;;;;;15.10;9.50;;;;;;;7.30;80.05;100411.71;105847;1275;140398;-75
2022/02/09 19:19:35;;;;;;;11.80;8.80;;;;;;;7.34;80.00;100410.60;105903;1274;108262;-74
2022/02/09 19:47:55;;;;;;;14.70;9.70;;;;;;;7.30;78.98;100413.80;105805;1274;137577;-76
2022/02/09 19:50:43;;;;;;;18.50;10.80;;;;;;;7.28;79.00;100411.75;105845;1273;96973;-74
2022/02/09 19:53:28;;;;;;;16.80;8.80;;;;;;;7.25;78.85;100416.29;105793;1273;137434;-73
2022/02/09 19:56:07;;;;;;;11.40;7.50;;;;;;;7.23;78.54;100415.13;105833;1274;110422;-73
2022/02/09 19:58:43;;;;;;;16.00;8.10;;;;;;;7.19;78.60;100416.57;105789;1274;138110;-74
2022/02/09 20:01:18;;;;;;;11.00;7.00;;;;;;;7.19;78.65;100420.21;105903;1275;109186;-74
2022/02/09 20:03:50;;;;;;;13.40;7.20;;;;;;;7.20;78.61;100418.28;105771;1273;138631;-74
2022/02/09 20:06:23;;;;;;;12.70;6.90;;;;;;;7.21;78.35;100422.25;105789;1274;96521;-75
2022/02/09 20:08:55;;;;;;;13.40;8.60;;;;;;;7.21;78.24;100418.61;105803;1275;109879;-75
2022/02/09 20:11:28;;;;;;;13.00;8.40;;;;;;;7.21;78.14;100421.38;105789;1273;137584;-73
2022/02/09 20:14:00;;;;;;;14.90;8.60;;;;;;;7.21;78.22;100420.00;105956;1273;107750;-77
2022/02/09 20:16:32;;;;;;;13.30;8.10;;;;;;;7.21;78.06;100423.12;106050;1270;137474;-74
2022/02/09 20:19:04;;;;;;;13.50;7.90;;;;;;;7.18;78.25;100428.69;106185;1270;96347;-74
2022/02/09 20:21:36;;;;;;;13.80;8.10;;;;;;;7.15;78.22;100430.45;106120;1270;138240;-74
2022/02/09 20:24:13;;;;;;;16.00;8.40;;;;;;;7.14;78.28;100426.84;106213;1270;108770;-75
2022/02/09 20:26:46;;;;;;;14.20;7.80;;;;;;;7.13;78.21;100432.73;106244;1270;108895;-73
2022/02/09 20:29:21;;;;;;;13.30;8.10;;;;;;;7.14;78.28;100424.77;106091;1270;138584;-74
2022/02/09 20:32:11;;;;;;;14.50;8.80;;;;;;;7.15;78.15;100424.23;106253;1270;97795;-74
2022/02/09 20:34:50;;;;;;;14.40;7.90;;;;;;;7.16;78.40;100424.55;106244;1270;137780;-74
2022/02/09 20:37:24;;;;;;;13.40;8.40;;;;;;;7.13;78.22;100425.29;106286;1270;107891;-74
2022/02/09 20:40:04;;;;;;;12.00;8.10;;;;;;;7.09;78.28;100431.75;106137;1270;137677;-73
2022/02/09 20:42:38;;;;;;;9.60;7.30;;;;;;;7.07;78.48;100430.92;106235;1270;96504;-74
2022/02/09 20:45:19;;;;;;;12.30;7.90;;;;;;;7.07;78.32;100432.33;106274;1270;96594;-73
2022/02/09 20:47:57;;;;;;;13.00;7.70;;;;;;;7.07;78.40;100428.17;106304;1270;137976;-74
2022/02/09 20:50:30;;;;;;;10.70;7.40;;;;;;;7.09;78.45;100433.67;107843;1270;108973;-74
2022/02/09 20:53:03;;;;;;;13.70;7.60;;;;;;;7.10;78.49;100430.02;107702;1270;138037;-74
2022/02/09 20:55:36;;;;;;;12.80;7.90;;;;;;;7.10;78.52;100432.44;107837;1270;95272;-74
2022/02/09 20:58:08;;;;;;;11.80;7.90;;;;;;;7.10;78.55;100430.89;107720;1270;137589;-74
2022/02/09 21:00:45;;;;;;;12.60;8.00;;;;;;;7.08;78.60;100430.23;107845;1269;110133;-74
2022/02/09 21:03:29;;;;;;;15.10;7.60;;;;;;;7.07;78.46;100425.58;107806;1270;107825;-74